createdAt,value
2022-08-30T06:43:49.289Z,69.10
2022-08-30T06:44:51.472Z,68.74
2022-08-30T06:45:53.047Z,68.33
2022-08-30T06:46:54.526Z,67.69
2022-08-30T06:47:59.516Z,67.28
2022-08-30T06:49:01.390Z,67.54
2022-08-30T06:50:03.425Z,67.52
2022-08-30T06:51:05.676Z,66.00
2022-08-30T06:52:07.124Z,65.44
2022-08-30T06:53:09.385Z,64.64
2022-08-30T06:54:12.411Z,64.07
2022-08-30T06:55:15.676Z,62.85
2022-08-30T06:56:18.942Z,62.49
2022-08-30T06:57:20.985Z,62.47
2022-08-30T07:18:05.518Z,55.51
2022-08-30T07:19:06.997Z,55.59
2022-08-30T07:20:09.105Z,54.63
2022-08-30T07:21:15.079Z,54.23
2022-08-30T07:22:17.078Z,54.05
2022-08-30T07:23:18.624Z,54.31
2022-08-30T07:30:06.110Z,53.45
2022-08-30T07:32:18.728Z,53.27
2022-08-30T07:33:20.225Z,53.06
2022-08-30T07:34:23.380Z,52.96
2022-08-30T07:35:27.233Z,53.04
2022-08-30T07:56:13.672Z,50.24
2022-08-30T07:57:15.968Z,49.77
2022-08-30T07:58:18.023Z,49.73
2022-08-30T07:59:20.185Z,49.10
2022-08-30T08:00:21.730Z,48.53
2022-08-30T08:01:23.942Z,48.18
2022-08-30T08:02:25.490Z,49.34
2022-08-30T08:03:26.908Z,48.16
2022-08-30T08:04:28.486Z,46.85
2022-08-30T08:05:29.878Z,46.97
2022-08-30T08:24:46.758Z,46.52
2022-08-30T08:25:48.172Z,45.64
2022-08-30T08:26:49.651Z,45.05
2022-08-30T08:27:51.805Z,45.18
2022-08-30T08:28:53.301Z,44.51
2022-08-30T08:29:58.252Z,44.03
2022-08-30T08:36:09.443Z,46.71
2022-08-30T08:37:11.137Z,47.69
2022-08-30T08:38:13.019Z,48.46
2022-08-30T08:39:14.563Z,48.36
2022-08-30T08:40:19.407Z,47.04
2022-08-30T08:41:49.803Z,46.71
2022-08-30T08:43:15.030Z,46.51
2022-08-30T08:44:54.796Z,47.11
2022-08-30T08:46:00.127Z,46.19
2022-08-30T08:47:16.965Z,46.04
2022-08-30T08:48:58.634Z,46.75
2022-08-30T09:06:45.671Z,44.32
2022-08-30T09:07:52.517Z,44.36
2022-08-30T09:08:56.055Z,43.46
2022-08-30T09:10:00.557Z,44.72
2022-08-30T09:11:06.865Z,46.54
2022-08-30T09:18:55.004Z,42.04
2022-08-30T09:19:56.394Z,44.42
2022-08-30T09:21:06.224Z,45.02
2022-08-30T09:22:28.045Z,44.23
2022-08-30T09:23:32.194Z,42.68
2022-08-30T09:30:04.401Z,45.29
2022-08-30T09:31:24.471Z,44.05
2022-08-30T09:32:29.386Z,42.96
2022-08-30T09:33:31.875Z,44.14
2022-08-30T09:34:33.341Z,44.44
2022-08-30T09:35:42.759Z,47.65
2022-08-30T09:36:44.166Z,47.04
2022-08-30T09:38:04.218Z,47.94
2022-08-30T09:39:20.983Z,45.81
2022-08-30T09:40:28.710Z,44.21
2022-08-30T09:41:38.352Z,44.62
2022-08-30T09:42:40.192Z,42.81
2022-08-30T09:43:41.918Z,43.08
2022-08-30T09:44:43.364Z,42.41
2022-08-30T09:45:49.701Z,41.94
2022-08-30T09:46:59.591Z,42.20
2022-08-30T09:48:01.027Z,41.89
2022-08-30T10:00:28.895Z,40.12
2022-08-30T10:01:35.997Z,40.34
2022-08-30T10:02:51.429Z,38.37
2022-08-30T10:04:02.033Z,37.19
2022-08-30T10:05:09.487Z,37.95
2022-08-30T10:06:28.918Z,38.83
2022-08-30T10:07:39.371Z,37.92
2022-08-30T10:08:52.968Z,37.14
2022-08-30T10:10:16.841Z,37.05
2022-08-30T10:11:43.833Z,36.19
2022-08-30T10:13:02.726Z,37.16
2022-08-30T10:14:35.776Z,36.83
2022-08-30T10:16:12.603Z,38.03
2022-08-30T10:17:44.576Z,37.66
2022-08-30T10:18:59.226Z,40.34
2022-08-30T10:20:05.378Z,38.88
2022-08-30T10:21:44.947Z,39.30
2022-08-30T10:23:09.846Z,40.13
2022-08-30T10:24:20.955Z,39.88
2022-08-30T10:25:27.133Z,39.24
2022-08-30T10:26:37.257Z,39.59
2022-08-30T10:27:54.661Z,37.82
2022-08-30T10:29:02.455Z,36.41
2022-08-30T10:37:23.393Z,34.71
2022-08-30T10:38:35.281Z,38.45
2022-08-30T10:39:50.199Z,38.40
2022-08-30T10:41:13.476Z,36.41
2022-08-30T10:42:21.460Z,35.46
2022-08-30T10:43:31.765Z,35.05
2022-08-30T10:44:44.477Z,35.22
2022-08-30T10:45:48.246Z,33.46
2022-08-30T10:47:05.029Z,34.81
2022-08-30T10:48:17.365Z,37.23
2022-08-30T10:49:26.422Z,35.09
2022-08-30T10:50:41.289Z,33.55
2022-08-30T10:51:55.180Z,32.22
2022-08-30T10:53:16.337Z,31.55
2022-08-30T10:54:31.892Z,31.41
2022-08-30T10:55:49.383Z,31.30
2022-08-30T10:56:52.772Z,30.72
2022-08-30T10:57:59.972Z,33.60
2022-08-30T10:59:05.261Z,33.77
2022-08-30T11:00:11.095Z,32.81
2022-08-30T11:01:28.543Z,34.13
2022-08-30T11:02:49.070Z,32.29
2022-08-30T11:04:16.522Z,34.04
2022-08-30T11:05:42.212Z,36.61
2022-08-30T11:12:04.900Z,37.15
2022-08-30T11:13:19.410Z,37.07
2022-08-30T11:14:25.313Z,36.96
2022-08-30T11:15:31.672Z,36.67
2022-08-30T11:16:43.297Z,36.13
2022-08-30T11:17:58.637Z,36.87
2022-08-30T11:24:11.308Z,34.80
2022-08-30T11:25:16.146Z,35.56
2022-08-30T11:26:50.911Z,34.82
2022-08-30T11:27:58.789Z,35.27
2022-08-30T11:29:02.509Z,37.64
2022-08-30T11:30:28.844Z,39.20
2022-08-30T11:31:36.048Z,37.70
2022-08-30T11:33:02.270Z,38.43
2022-08-30T11:34:05.891Z,38.62
2022-08-30T11:35:07.731Z,38.29
2022-08-30T11:37:56.893Z,36.99
2022-08-30T11:39:10.921Z,37.39
2022-08-30T11:40:24.577Z,36.99
2022-08-30T11:41:42.635Z,38.49
2022-08-30T11:42:50.614Z,37.13
2022-08-30T11:43:55.572Z,38.39
2022-08-30T11:45:25.145Z,37.42
2022-08-30T11:46:28.080Z,36.96
2022-08-30T11:47:55.421Z,37.17
2022-08-30T11:49:19.764Z,36.75
2022-08-30T11:50:48.478Z,36.58
2022-08-30T11:52:26.500Z,36.45
2022-08-30T11:53:42.175Z,35.89
2022-08-30T11:55:08.110Z,37.32
2022-08-30T11:56:25.049Z,35.93
2022-08-30T11:58:04.566Z,37.25
2022-08-30T11:59:38.109Z,37.08
2022-08-30T12:00:47.820Z,36.46
2022-08-30T12:01:54.026Z,36.24
2022-08-30T12:03:02.049Z,35.97
2022-08-30T12:04:25.494Z,35.47
2022-08-30T12:05:38.069Z,35.58
2022-08-30T12:06:39.386Z,35.91
2022-08-30T12:08:02.608Z,35.90
2022-08-30T12:09:04.206Z,36.59
2022-08-30T12:10:24.434Z,36.75
2022-08-30T12:11:32.073Z,36.95
2022-08-30T12:12:36.738Z,37.15
2022-08-30T12:13:47.326Z,36.80
2022-08-30T12:14:52.602Z,37.30
2022-08-30T12:15:58.370Z,37.47
2022-08-30T12:17:20.860Z,37.71
2022-08-30T12:18:34.009Z,37.04
2022-08-30T12:19:41.395Z,37.08
2022-08-30T12:20:47.280Z,37.06
2022-08-30T12:21:57.177Z,36.90
2022-08-30T12:23:28.220Z,36.90
2022-08-30T12:24:36.529Z,36.23
2022-08-30T12:25:41.616Z,36.10
2022-08-30T12:26:45.512Z,35.92
2022-08-30T12:27:47.072Z,35.67
2022-08-30T12:28:51.223Z,35.01
2022-08-30T12:29:55.729Z,34.88
2022-08-30T12:31:27.171Z,33.95
2022-08-30T12:32:30.976Z,35.45
2022-08-30T12:33:41.536Z,34.91
2022-08-30T12:34:45.809Z,33.94
2022-08-30T12:35:47.353Z,32.91
2022-08-30T12:36:53.785Z,33.87
2022-08-30T12:37:59.241Z,32.94
2022-08-30T12:39:20.645Z,33.08
2022-08-30T12:40:24.126Z,32.62
2022-08-30T12:41:29.520Z,32.31
2022-08-30T12:42:35.440Z,33.10
2022-08-30T12:43:47.185Z,33.03
2022-08-30T12:44:53.357Z,33.36
2022-08-30T12:45:59.362Z,33.28
2022-08-30T12:47:12.622Z,33.36
2022-08-30T12:48:19.644Z,33.66
2022-08-30T12:49:25.380Z,34.02
2022-08-30T12:50:35.509Z,33.84
2022-08-30T12:51:41.649Z,34.46
2022-08-30T12:52:47.917Z,34.71
2022-08-30T12:53:51.307Z,35.39
2022-08-30T12:54:55.615Z,35.03
2022-08-30T12:56:03.186Z,34.91
2022-08-30T12:57:32.198Z,34.49
2022-08-30T12:58:37.437Z,33.44
2022-08-30T13:05:09.728Z,32.71
2022-08-30T13:06:11.152Z,32.10
2022-08-30T13:07:13.209Z,34.22
2022-08-30T13:08:22.509Z,33.82
2022-08-30T13:09:33.864Z,33.16
2022-08-30T13:10:35.934Z,32.83
2022-08-30T13:11:37.537Z,33.44
2022-08-30T13:12:40.226Z,33.92
2022-08-30T13:13:52.259Z,34.03
2022-08-30T13:15:10.729Z,34.03
2022-08-30T13:16:18.392Z,33.40
2022-08-30T13:17:19.791Z,32.74
2022-08-30T13:18:30.011Z,32.31
2022-08-30T13:19:37.333Z,32.52
2022-08-30T13:20:38.814Z,32.02
2022-08-30T13:21:51.238Z,32.36
2022-08-30T13:23:04.942Z,33.28
2022-08-30T13:24:06.475Z,31.72
2022-08-30T13:25:10.178Z,31.50
2022-08-30T13:26:11.722Z,31.04
2022-08-30T13:27:13.966Z,31.59
2022-08-30T13:28:21.870Z,30.58
2022-08-30T13:29:26.769Z,30.32
2022-08-30T13:30:29.724Z,30.52
2022-08-30T13:31:37.857Z,29.90
2022-08-30T13:32:39.931Z,30.55
2022-08-30T13:33:41.461Z,30.90
2022-08-30T13:34:43.454Z,30.11
2022-08-30T13:35:45.095Z,32.36
2022-08-30T13:36:50.416Z,31.29
2022-08-30T13:37:52.203Z,31.19
2022-08-30T13:38:53.995Z,30.81
2022-08-30T13:39:55.840Z,30.97
2022-08-30T13:40:57.257Z,33.02
2022-08-30T13:48:27.088Z,31.70
2022-08-30T13:49:47.349Z,30.83
2022-08-30T13:50:48.777Z,29.85
2022-08-30T13:52:09.721Z,30.01
2022-08-30T13:53:15.329Z,31.12
2022-08-30T13:54:16.935Z,31.73
2022-08-30T13:55:18.342Z,30.98
2022-08-30T13:56:20.438Z,31.56
2022-08-30T13:58:50.152Z,33.14
2022-08-30T13:59:51.570Z,34.69
2022-08-30T14:00:54.019Z,36.14
2022-08-30T14:02:10.751Z,35.91
2022-08-30T14:03:14.239Z,34.26
2022-08-30T14:04:16.426Z,33.07
2022-08-30T14:05:47.829Z,32.38
2022-08-30T14:07:11.810Z,32.26
2022-08-30T14:08:01.812Z,32.13
2022-08-30T14:09:06.472Z,31.08
2022-08-30T14:17:03.908Z,31.90
2022-08-30T14:18:06.301Z,32.04
2022-08-30T14:19:11.707Z,32.11
2022-08-30T14:20:16.761Z,32.00
2022-08-30T14:21:21.262Z,31.40
2022-08-30T14:22:26.049Z,32.26
2022-08-30T14:23:28.343Z,31.42
2022-08-30T14:24:29.756Z,32.13
2022-08-30T14:25:31.327Z,31.87
2022-08-30T14:26:36.513Z,31.32
2022-08-30T14:27:37.969Z,31.44
2022-08-30T14:28:39.433Z,31.47
2022-08-30T14:29:40.889Z,31.20
2022-08-30T14:30:45.308Z,30.19
2022-08-30T14:31:52.466Z,30.93
2022-08-30T14:32:53.969Z,33.48
2022-08-30T14:33:55.593Z,32.53
2022-08-30T14:34:56.977Z,31.79
2022-08-30T14:35:58.455Z,31.75
2022-08-30T14:36:59.966Z,31.38
2022-08-30T14:38:01.396Z,33.19
2022-08-30T14:39:08.486Z,33.14
2022-08-30T14:40:10.642Z,34.19
2022-08-30T14:41:12.138Z,33.91
2022-08-30T14:42:18.760Z,33.35
2022-08-30T14:43:20.648Z,34.04
2022-08-30T14:44:23.227Z,33.78
2022-08-30T14:45:25.117Z,33.22
2022-08-30T14:46:26.838Z,33.24
2022-08-30T14:53:05.303Z,34.88
2022-08-30T14:54:07.018Z,34.84
2022-08-30T14:55:11.996Z,33.72
2022-08-30T14:56:16.111Z,33.30
2022-08-30T14:57:17.538Z,32.50
2022-08-30T14:58:19.383Z,33.06
2022-08-30T14:59:21.850Z,32.55
2022-08-30T15:00:23.440Z,31.83
2022-08-30T15:01:28.431Z,32.63
2022-08-30T15:02:29.798Z,33.04
2022-08-30T15:03:31.308Z,32.85
2022-08-30T15:04:32.827Z,32.53
2022-08-30T15:11:05.116Z,33.25
2022-08-30T15:12:07.090Z,33.36
2022-08-30T15:13:09.137Z,33.46
2022-08-30T15:14:16.272Z,32.66
2022-08-30T15:15:20.592Z,32.83
2022-08-30T15:16:28.003Z,32.45
2022-08-30T15:17:29.624Z,33.12
2022-08-30T15:18:31.001Z,33.33
2022-08-30T15:19:33.474Z,33.45
2022-08-30T15:20:34.976Z,33.36
2022-08-30T15:21:43.028Z,33.82
2022-08-30T15:22:46.115Z,33.55
2022-08-30T15:23:49.029Z,33.89
2022-08-30T15:24:50.983Z,34.02
2022-08-30T15:25:52.572Z,34.13
2022-08-30T15:26:54.210Z,33.78
2022-08-30T15:27:56.293Z,33.76
2022-08-30T15:28:57.938Z,33.59
2022-08-30T15:35:04.845Z,34.33
2022-08-30T15:36:09.832Z,34.71
2022-08-30T15:37:11.229Z,34.46
2022-08-30T15:38:15.203Z,34.52
2022-08-30T15:39:17.680Z,34.25
2022-08-30T15:40:19.682Z,34.07
2022-08-30T15:41:21.801Z,34.32
2022-08-30T15:42:23.659Z,34.34
2022-08-30T15:43:25.073Z,34.47
2022-08-30T15:44:26.691Z,34.87
2022-08-30T15:45:28.949Z,34.65
2022-08-30T15:46:39.220Z,35.02
2022-08-30T15:47:40.618Z,35.03
2022-08-30T15:48:45.751Z,35.09
2022-08-30T15:49:58.094Z,35.58
2022-08-30T15:50:59.528Z,35.15
2022-08-30T15:52:03.775Z,35.50
2022-08-30T15:53:07.450Z,35.78
2022-08-30T15:54:11.478Z,35.96
2022-08-30T15:55:17.759Z,36.15
2022-08-30T15:56:19.470Z,36.64
2022-08-30T15:57:20.998Z,36.68
2022-08-30T15:58:22.412Z,36.31
2022-08-30T15:59:23.780Z,36.81
2022-08-30T16:00:29.622Z,37.41
2022-08-30T16:01:32.303Z,37.30
2022-08-30T16:02:33.797Z,37.54
2022-08-30T16:03:37.228Z,38.01
2022-08-30T16:04:39.413Z,38.26
2022-08-30T16:11:06.317Z,38.16
2022-08-30T16:12:09.878Z,38.30
2022-08-30T16:13:11.508Z,38.65
2022-08-30T16:14:12.916Z,38.26
2022-08-30T16:15:15.518Z,39.11
2022-08-30T16:16:18.278Z,38.66
2022-08-30T16:17:20.602Z,39.00
2022-08-30T16:18:21.977Z,39.37
2022-08-30T16:19:24.630Z,40.32
2022-08-30T16:20:26.081Z,40.12
2022-08-30T16:21:30.065Z,39.79
2022-08-30T16:22:34.620Z,39.81
2022-08-30T16:23:37.549Z,39.94
2022-08-30T16:24:40.540Z,40.06
2022-08-30T16:25:42.973Z,40.26
2022-08-30T16:26:44.748Z,39.95
2022-08-30T16:27:46.291Z,40.51
2022-08-30T16:28:48.818Z,40.55
2022-08-30T16:35:02.670Z,40.49
2022-08-30T16:36:04.780Z,40.83
2022-08-30T16:37:07.268Z,41.16
2022-08-30T16:38:09.589Z,40.81
2022-08-30T16:39:12.938Z,40.89
2022-08-30T16:40:14.388Z,40.92
2022-08-30T16:41:21.559Z,41.22
2022-08-30T16:42:23.076Z,41.32
2022-08-30T16:43:25.940Z,41.28
